createdAt,value
2022-11-28T00:00:14.808Z,9.26
2022-11-28T00:02:43.030Z,9.25
2022-11-28T00:05:13.319Z,9.24
2022-11-28T00:07:41.632Z,9.21
2022-11-28T00:10:11.029Z,9.18
2022-11-28T00:12:38.882Z,9.16
2022-11-28T00:15:07.516Z,9.17
2022-11-28T00:17:35.458Z,9.17
2022-11-28T00:20:03.454Z,9.15
2022-11-28T00:22:32.758Z,9.15
2022-11-28T00:25:00.642Z,9.14
2022-11-28T00:27:28.407Z,9.14
2022-11-28T00:29:57.140Z,9.12
2022-11-28T00:32:25.068Z,9.12
2022-11-28T00:34:53.026Z,9.10
2022-11-28T00:37:21.003Z,9.08
2022-11-28T00:39:50.425Z,9.05
2022-11-28T00:42:21.253Z,9.04
2022-11-28T00:44:49.441Z,9.04
2022-11-28T00:47:17.585Z,9.00
2022-11-28T00:49:45.465Z,9.00
2022-11-28T00:52:13.237Z,8.98
2022-11-28T00:54:41.471Z,8.98
2022-11-28T00:57:11.441Z,8.99
2022-11-28T00:59:39.296Z,8.96
2022-11-28T01:02:07.327Z,8.98
2022-11-28T01:04:35.299Z,8.98
2022-11-28T01:07:03.638Z,8.98
2022-11-28T01:09:31.508Z,9.01
2022-11-28T01:11:59.367Z,9.03
2022-11-28T01:14:30.244Z,9.03
2022-11-28T01:16:58.169Z,9.01
2022-11-28T01:19:26.019Z,9.00
2022-11-28T01:21:53.928Z,9.00
2022-11-28T01:24:21.874Z,8.93
2022-11-28T01:26:49.776Z,8.93
2022-11-28T01:29:17.632Z,8.91
2022-11-28T01:31:46.986Z,8.90
2022-11-28T01:34:14.882Z,8.87
2022-11-28T01:36:42.785Z,8.88
2022-11-28T01:39:11.382Z,8.88
2022-11-28T01:41:39.772Z,8.87
2022-11-28T01:44:08.957Z,8.87
2022-11-28T01:46:37.487Z,8.85
2022-11-28T01:49:10.632Z,8.87
2022-11-28T01:51:39.956Z,8.84
2022-11-28T01:54:07.927Z,8.84
2022-11-28T01:56:39.650Z,8.83
2022-11-28T01:59:09.513Z,8.83
2022-11-28T02:01:37.435Z,8.81
2022-11-28T02:04:05.698Z,8.80
2022-11-28T02:06:35.006Z,8.79
2022-11-28T02:09:03.225Z,8.79
2022-11-28T02:11:41.508Z,8.76
2022-11-28T02:14:16.824Z,8.76
2022-11-28T02:16:50.323Z,8.75
2022-11-28T02:19:36.565Z,8.73
2022-11-28T02:22:13.540Z,8.73
2022-11-28T02:25:02.159Z,8.74
2022-11-28T02:27:38.489Z,8.72
2022-11-28T02:30:19.548Z,8.70
2022-11-28T02:32:56.761Z,8.70
2022-11-28T02:35:27.971Z,8.68
2022-11-28T02:38:01.373Z,8.68
2022-11-28T02:40:32.899Z,8.67
2022-11-28T02:43:05.939Z,8.65
2022-11-28T02:45:38.710Z,8.67
2022-11-28T02:48:10.390Z,8.67
2022-11-28T02:50:42.203Z,8.65
2022-11-28T02:53:11.988Z,8.65
2022-11-28T02:55:41.285Z,8.66
2022-11-28T02:58:10.385Z,8.66
2022-11-28T03:00:39.601Z,8.68
2022-11-28T03:03:23.878Z,8.70
2022-11-28T03:05:57.747Z,8.69
2022-11-28T03:08:33.897Z,8.68
2022-11-28T03:11:05.246Z,8.68
2022-11-28T03:13:35.768Z,8.68
2022-11-28T03:16:14.467Z,8.69
2022-11-28T03:18:47.396Z,8.69
2022-11-28T03:21:19.208Z,8.73
2022-11-28T03:23:50.026Z,8.75
2022-11-28T03:26:20.005Z,8.74
2022-11-28T03:28:51.286Z,8.71
2022-11-28T03:31:22.186Z,8.70
2022-11-28T03:33:53.280Z,8.68
2022-11-28T03:36:22.580Z,8.65
2022-11-28T03:38:54.000Z,8.64
2022-11-28T03:41:24.196Z,8.63
2022-11-28T03:43:54.086Z,8.62
2022-11-28T03:46:24.246Z,8.67
2022-11-28T03:48:56.258Z,8.69
2022-11-28T03:51:26.834Z,8.69
2022-11-28T03:53:57.538Z,8.66
2022-11-28T03:56:28.082Z,8.64
2022-11-28T03:58:57.861Z,8.59
2022-11-28T04:01:30.234Z,8.57
2022-11-28T04:04:06.600Z,8.55
2022-11-28T04:06:39.017Z,8.55
2022-11-28T04:09:14.048Z,8.52
2022-11-28T04:11:46.378Z,8.51
2022-11-28T04:14:18.370Z,8.49
2022-11-28T04:16:53.769Z,8.50
2022-11-28T04:19:28.333Z,8.47
2022-11-28T04:21:58.647Z,8.52
2022-11-28T04:24:28.050Z,8.55
2022-11-28T04:26:57.314Z,8.56
2022-11-28T04:29:26.196Z,8.61
2022-11-28T04:31:58.393Z,8.63
2022-11-28T04:34:29.730Z,8.64
2022-11-28T04:37:00.026Z,8.67
2022-11-28T04:39:29.474Z,8.68
2022-11-28T04:41:59.018Z,8.70
2022-11-28T04:44:29.180Z,8.77
2022-11-28T04:46:58.266Z,8.79
2022-11-28T04:49:28.616Z,8.80
2022-11-28T04:52:00.415Z,8.83
2022-11-28T04:54:30.850Z,8.82
2022-11-28T04:57:01.659Z,8.82
2022-11-28T04:59:31.761Z,8.79
2022-11-28T05:02:04.079Z,8.77
2022-11-28T05:04:36.040Z,8.75
2022-11-28T05:07:04.541Z,8.70
2022-11-28T05:09:32.486Z,8.69
2022-11-28T05:12:00.848Z,8.67
2022-11-28T05:14:28.838Z,8.63
2022-11-28T05:16:56.740Z,8.61
2022-11-28T05:19:24.617Z,8.58
2022-11-28T05:21:54.449Z,8.58
2022-11-28T05:24:22.706Z,8.61
2022-11-28T05:26:50.965Z,8.59
2022-11-28T05:29:18.810Z,8.55
2022-11-28T05:31:46.700Z,8.55
2022-11-28T05:34:14.629Z,8.53
2022-11-28T05:36:42.517Z,8.51
2022-11-28T05:39:11.824Z,8.50
2022-11-28T05:41:39.680Z,8.48
2022-11-28T05:44:07.655Z,8.45
2022-11-28T05:46:35.552Z,8.44
2022-11-28T05:49:03.450Z,8.44
2022-11-28T05:51:31.333Z,8.42
2022-11-28T05:53:59.215Z,8.41
2022-11-28T05:56:28.419Z,8.42
2022-11-28T05:58:56.380Z,8.39
2022-11-28T06:01:25.143Z,8.33
2022-11-28T06:03:58.266Z,8.33
2022-11-28T06:06:27.247Z,8.32
2022-11-28T06:08:55.541Z,8.33
2022-11-28T06:11:24.629Z,8.30
2022-11-28T06:13:53.990Z,8.29
2022-11-28T06:16:24.116Z,8.29
2022-11-28T06:18:53.910Z,8.30
2022-11-28T06:21:21.938Z,8.29
2022-11-28T06:23:49.965Z,8.29
2022-11-28T06:26:19.036Z,8.28
2022-11-28T06:28:47.560Z,8.28
2022-11-28T06:31:18.181Z,8.26
2022-11-28T06:33:46.299Z,8.25
2022-11-28T06:36:15.154Z,8.24
2022-11-28T06:38:43.254Z,8.27
2022-11-28T06:41:12.778Z,8.25
2022-11-28T06:43:40.837Z,8.28
2022-11-28T06:46:15.938Z,8.23
2022-11-28T06:48:46.011Z,8.23
2022-11-28T06:51:14.348Z,8.24
2022-11-28T06:53:42.844Z,8.19
2022-11-28T06:56:12.651Z,8.19
2022-11-28T06:58:40.634Z,8.19
2022-11-28T07:01:10.465Z,8.21
2022-11-28T07:03:38.848Z,8.19
2022-11-28T07:06:08.588Z,8.22
2022-11-28T07:08:37.417Z,8.24
2022-11-28T07:11:09.491Z,8.28
2022-11-28T07:13:37.729Z,8.29
2022-11-28T07:16:05.879Z,8.31
2022-11-28T07:18:33.825Z,8.33
2022-11-28T07:21:01.796Z,8.31
2022-11-28T07:23:31.183Z,8.31
2022-11-28T07:25:59.980Z,8.27
2022-11-28T07:28:27.989Z,8.28
2022-11-28T07:31:02.785Z,8.30
2022-11-28T07:33:30.994Z,8.28
2022-11-28T07:36:01.578Z,8.30
2022-11-28T07:38:29.640Z,8.32
2022-11-28T07:41:03.347Z,8.32
2022-11-28T07:43:31.224Z,8.37
2022-11-28T07:46:01.576Z,8.40
2022-11-28T07:48:29.841Z,8.43
2022-11-28T07:50:57.768Z,8.41
2022-11-28T07:53:25.776Z,8.41
2022-11-28T07:55:53.728Z,8.40
2022-11-28T07:58:23.013Z,8.42
2022-11-28T08:00:51.116Z,8.45
2022-11-28T08:03:19.157Z,8.45
2022-11-28T08:05:49.732Z,8.44
2022-11-28T08:08:17.961Z,8.46
2022-11-28T08:10:45.948Z,8.40
2022-11-28T08:13:14.540Z,8.38
2022-11-28T08:15:43.861Z,8.32
2022-11-28T08:18:13.190Z,8.31
2022-11-28T08:20:41.174Z,8.28
2022-11-28T08:23:09.074Z,8.28
2022-11-28T08:25:37.135Z,8.29
2022-11-28T08:28:05.097Z,8.25
2022-11-28T08:30:33.036Z,8.26
2022-11-28T08:33:02.455Z,8.27
2022-11-28T08:35:30.355Z,8.26
2022-11-28T08:38:01.846Z,8.25
2022-11-28T08:40:30.048Z,8.24
2022-11-28T08:42:59.573Z,8.24
2022-11-28T08:45:27.455Z,8.24
2022-11-28T08:47:55.266Z,8.25
2022-11-28T08:50:24.581Z,8.30
2022-11-28T08:52:52.372Z,8.33
2022-11-28T08:55:25.092Z,8.37
2022-11-28T08:57:59.709Z,8.42
2022-11-28T09:00:27.596Z,8.47
2022-11-28T09:02:55.475Z,8.49
2022-11-28T09:05:24.642Z,8.49
2022-11-28T09:07:55.373Z,8.52
2022-11-28T09:10:23.324Z,8.54
2022-11-28T09:12:51.292Z,8.55
2022-11-28T09:15:19.496Z,8.59
2022-11-28T09:17:47.639Z,8.62
2022-11-28T09:20:16.691Z,8.62
2022-11-28T09:22:47.387Z,8.65
2022-11-28T09:25:15.481Z,8.68
2022-11-28T09:27:43.503Z,8.74
2022-11-28T09:30:11.681Z,8.75
2022-11-28T09:32:39.829Z,8.80
2022-11-28T09:35:08.090Z,8.81
2022-11-28T09:37:35.968Z,8.81
2022-11-28T09:40:13.332Z,8.79
2022-11-28T09:42:44.178Z,8.82
2022-11-28T09:45:13.835Z,8.82
2022-11-28T09:47:43.525Z,8.83
2022-11-28T09:50:15.510Z,8.87
2022-11-28T09:52:48.559Z,8.89
2022-11-28T09:55:25.074Z,8.90
2022-11-28T09:57:53.720Z,8.90
2022-11-28T10:00:22.873Z,8.92
2022-11-28T10:03:04.363Z,8.92
2022-11-28T10:05:36.714Z,9.00
2022-11-28T10:08:16.370Z,9.06
2022-11-28T10:10:50.885Z,9.09
2022-11-28T10:13:32.704Z,9.08
2022-11-28T10:16:13.516Z,9.08
2022-11-28T10:18:44.652Z,9.08
2022-11-28T10:21:20.026Z,9.10
2022-11-28T10:23:48.554Z,9.06
2022-11-28T10:26:22.278Z,9.10
2022-11-28T10:28:52.489Z,9.11
2022-11-28T10:31:22.654Z,9.12
2022-11-28T10:33:53.607Z,9.15
2022-11-28T10:36:24.878Z,9.16
2022-11-28T10:38:53.534Z,9.18
2022-11-28T10:41:26.517Z,9.18
2022-11-28T10:43:59.523Z,9.18
2022-11-28T10:46:34.841Z,9.24
2022-11-28T10:49:08.750Z,9.28
2022-11-28T10:51:44.552Z,9.31
2022-11-28T10:54:20.931Z,9.31
2022-11-28T10:56:55.406Z,9.31
2022-11-28T10:59:29.774Z,9.34
2022-11-28T11:01:58.360Z,9.37
2022-11-28T11:04:28.392Z,9.46
2022-11-28T11:07:14.803Z,9.52
2022-11-28T11:09:46.562Z,9.74
2022-11-28T11:12:20.338Z,9.88
2022-11-28T11:14:48.326Z,10.05
2022-11-28T11:17:35.460Z,10.13
2022-11-28T11:20:05.214Z,10.13
2022-11-28T11:22:33.171Z,10.10
2022-11-28T11:25:08.676Z,10.11
2022-11-28T11:27:38.365Z,10.08
2022-11-28T11:30:17.479Z,10.13
2022-11-28T11:32:51.364Z,10.21
2022-11-28T11:35:23.109Z,10.32
2022-11-28T11:37:50.946Z,10.38
2022-11-28T11:40:22.115Z,10.43
2022-11-28T11:42:54.487Z,10.45
2022-11-28T11:45:27.414Z,10.41
2022-11-28T11:47:55.315Z,10.29
2022-11-28T11:50:24.578Z,10.25
2022-11-28T11:53:02.876Z,10.16
2022-11-28T11:55:31.502Z,10.13
2022-11-28T11:58:05.672Z,10.15
2022-11-28T12:00:37.537Z,10.11
2022-11-28T12:03:08.119Z,10.08
2022-11-28T12:06:06.111Z,10.04
2022-11-28T12:08:34.312Z,9.96
2022-11-28T12:11:09.882Z,9.96
2022-11-28T12:13:40.749Z,9.89
2022-11-28T12:16:12.392Z,9.84
2022-11-28T12:18:48.053Z,9.83
2022-11-28T12:21:22.693Z,9.82
2022-11-28T12:23:57.455Z,9.79
2022-11-28T12:26:30.602Z,9.70
2022-11-28T12:29:09.438Z,9.72
2022-11-28T12:31:44.891Z,9.67
2022-11-28T12:34:19.746Z,9.59
2022-11-28T12:36:52.970Z,9.58
2022-11-28T12:39:27.492Z,9.58
2022-11-28T12:42:10.321Z,9.53
2022-11-28T12:44:54.365Z,9.51
2022-11-28T12:47:29.604Z,9.46
2022-11-28T12:50:01.203Z,9.46
2022-11-28T12:52:37.333Z,9.46
2022-11-28T12:55:12.810Z,9.47
2022-11-28T12:57:44.939Z,9.43
2022-11-28T13:00:15.789Z,9.39
2022-11-28T13:02:50.368Z,9.39
2022-11-28T13:05:30.182Z,9.42
2022-11-28T13:08:25.068Z,9.39
2022-11-28T13:10:58.136Z,9.36
2022-11-28T13:13:29.711Z,9.37
2022-11-28T13:16:01.185Z,9.43
2022-11-28T13:18:36.947Z,9.42
2022-11-28T13:21:08.930Z,9.41
2022-11-28T13:23:40.419Z,9.48
2022-11-28T13:26:12.193Z,9.50
2022-11-28T13:28:44.253Z,9.49
2022-11-28T13:31:23.095Z,9.54
2022-11-28T13:33:53.655Z,9.53
2022-11-28T13:39:22.403Z,9.51
2022-11-28T13:42:43.848Z,9.50
2022-11-28T13:44:46.314Z,9.45
2022-11-28T13:47:15.547Z,9.45
2022-11-28T13:49:44.880Z,9.42
2022-11-28T13:52:29.433Z,9.40
2022-11-28T13:54:57.249Z,9.38
2022-11-28T13:57:28.307Z,9.38
2022-11-28T13:59:59.733Z,9.41
2022-11-28T14:02:34.541Z,9.41
2022-11-28T14:05:04.736Z,9.47
2022-11-28T14:07:34.023Z,9.48
2022-11-28T14:10:19.786Z,9.51
2022-11-28T14:12:53.677Z,9.55
2022-11-28T14:15:30.279Z,9.59
2022-11-28T14:18:24.786Z,9.62
2022-11-28T14:20:58.700Z,9.61
2022-11-28T14:23:30.923Z,9.63
2022-11-28T14:25:59.852Z,9.65
2022-11-28T14:28:30.219Z,9.64
2022-11-28T14:31:03.291Z,9.65
2022-11-28T14:33:36.991Z,9.64
2022-11-28T14:36:22.889Z,9.65
2022-11-28T14:39:08.550Z,9.60
2022-11-28T14:41:51.387Z,9.50
2022-11-28T14:44:37.129Z,9.41
2022-11-28T14:47:15.490Z,9.32
2022-11-28T14:49:43.416Z,9.25
2022-11-28T14:52:38.436Z,9.24
2022-11-28T14:55:16.766Z,9.18
2022-11-28T14:57:54.216Z,9.16
2022-11-28T15:00:25.054Z,9.13
2022-11-28T15:03:00.827Z,9.09
2022-11-28T15:05:36.854Z,9.09
2022-11-28T15:08:25.871Z,9.09
2022-11-28T15:10:58.817Z,9.07
2022-11-28T15:13:33.287Z,9.09
2022-11-28T15:16:04.108Z,9.07
2022-11-28T15:18:34.537Z,9.04
2022-11-28T15:21:04.968Z,9.00
2022-11-28T15:23:33.626Z,8.98
2022-11-28T15:26:02.195Z,8.96
2022-11-28T15:28:32.525Z,8.94
2022-11-28T15:31:01.778Z,8.93
2022-11-28T15:33:30.207Z,8.93
2022-11-28T15:36:01.465Z,8.90
2022-11-28T15:38:30.793Z,8.90
2022-11-28T15:41:00.331Z,8.88
2022-11-28T15:43:30.729Z,8.88
2022-11-28T15:46:00.314Z,8.85
2022-11-28T15:48:30.941Z,8.82
2022-11-28T15:51:02.209Z,8.79
2022-11-28T15:53:30.212Z,8.78
2022-11-28T15:56:11.902Z,8.78
2022-11-28T15:58:40.535Z,8.73
2022-11-28T16:01:12.126Z,8.73
2022-11-28T16:03:45.096Z,8.69
2022-11-28T16:06:14.892Z,8.65
2022-11-28T16:08:48.732Z,8.62
2022-11-28T16:11:19.964Z,8.61
2022-11-28T16:13:48.554Z,8.56
2022-11-28T16:16:19.147Z,8.54
2022-11-28T16:18:48.123Z,8.55
2022-11-28T16:21:18.721Z,8.53
2022-11-28T16:23:46.720Z,8.52
2022-11-28T16:26:23.107Z,8.51
2022-11-28T16:28:58.513Z,8.49
2022-11-28T16:31:27.709Z,8.45
2022-11-28T16:33:56.042Z,8.45
2022-11-28T16:36:26.426Z,8.43
2022-11-28T16:38:55.590Z,8.40
2022-11-28T16:41:25.095Z,8.39
2022-11-28T16:43:55.407Z,8.37
2022-11-28T16:46:24.799Z,8.35
2022-11-28T16:48:56.302Z,8.36
2022-11-28T16:51:38.886Z,8.34
2022-11-28T16:54:30.271Z,8.34
2022-11-28T16:57:08.945Z,8.34
2022-11-28T16:59:36.937Z,8.32
2022-11-28T17:02:04.998Z,8.33
2022-11-28T17:04:32.991Z,8.32
2022-11-28T17:07:05.392Z,8.32
2022-11-28T17:09:36.195Z,8.31
2022-11-28T17:12:04.988Z,8.32
2022-11-28T17:14:33.209Z,8.29
2022-11-28T17:17:01.491Z,8.29
2022-11-28T17:19:29.413Z,8.27
2022-11-28T17:21:59.177Z,8.25
2022-11-28T17:24:28.721Z,8.26
2022-11-28T17:26:58.082Z,8.27
2022-11-28T17:29:27.890Z,8.27
2022-11-28T17:31:59.029Z,8.24
2022-11-28T17:34:28.199Z,8.26
2022-11-28T17:36:56.084Z,8.24
2022-11-28T17:39:24.177Z,8.21
2022-11-28T17:41:52.135Z,8.23
2022-11-28T17:44:22.484Z,8.20
2022-11-28T17:46:51.051Z,8.20
2022-11-28T17:49:19.429Z,8.18
2022-11-28T17:51:47.410Z,8.15
2022-11-28T17:54:16.801Z,8.17
2022-11-28T17:56:44.855Z,8.18
2022-11-28T17:59:13.175Z,8.18
2022-11-28T18:01:42.821Z,8.20
2022-11-28T18:04:10.925Z,8.22
2022-11-28T18:06:38.807Z,8.28
2022-11-28T18:09:11.597Z,8.33
2022-11-28T18:11:40.657Z,8.38
2022-11-28T18:14:08.686Z,8.42
2022-11-28T18:16:36.849Z,8.48
2022-11-28T18:19:06.314Z,8.52
2022-11-28T18:21:34.250Z,8.57
2022-11-28T18:25:09.762Z,8.54
2022-11-28T18:27:39.274Z,8.48
2022-11-28T18:30:09.124Z,8.50
2022-11-28T18:32:37.398Z,8.48
2022-11-28T18:35:06.299Z,8.48
2022-11-28T18:37:34.547Z,8.51
2022-11-28T18:40:07.645Z,8.48
2022-11-28T18:42:39.035Z,8.52
2022-11-28T18:45:08.381Z,8.52
2022-11-28T18:47:36.546Z,8.57
2022-11-28T18:50:04.886Z,8.61
2022-11-28T18:52:33.038Z,8.60
2022-11-28T18:55:01.126Z,8.65
2022-11-28T18:57:32.823Z,8.63
2022-11-28T19:00:03.300Z,8.62
2022-11-28T19:02:31.450Z,8.60
2022-11-28T19:04:59.677Z,8.66
2022-11-28T19:07:28.096Z,8.66
2022-11-28T19:09:56.195Z,8.64
2022-11-28T19:12:24.358Z,8.62
2022-11-28T19:14:55.087Z,8.62
2022-11-28T19:17:28.290Z,8.61
2022-11-28T19:19:56.489Z,8.61
2022-11-28T19:22:24.703Z,8.55
2022-11-28T19:24:52.875Z,8.54
2022-11-28T19:27:22.595Z,8.55
2022-11-28T19:29:50.998Z,8.60
2022-11-28T19:32:19.183Z,8.60
2022-11-28T19:34:52.393Z,8.64
2022-11-28T19:37:20.657Z,8.56
2022-11-28T19:39:48.899Z,8.55
2022-11-28T19:42:17.114Z,8.50
2022-11-28T19:44:45.286Z,8.48
2022-11-28T19:47:13.373Z,8.46
2022-11-28T19:49:41.674Z,8.39
2022-11-28T19:52:11.614Z,8.38
2022-11-28T19:54:39.948Z,8.33
2022-11-28T19:57:11.081Z,8.30
2022-11-28T19:59:39.229Z,8.27
2022-11-28T20:02:07.765Z,8.23
2022-11-28T20:04:35.923Z,8.21
2022-11-28T20:07:04.089Z,8.12
2022-11-28T20:09:33.767Z,8.09
2022-11-28T20:12:01.955Z,8.05
2022-11-28T20:14:32.314Z,8.06
2022-11-28T20:17:01.141Z,8.03
2022-11-28T20:19:29.339Z,7.99
2022-11-28T20:21:58.741Z,7.98
2022-11-28T20:24:26.922Z,7.94
2022-11-28T20:26:57.020Z,7.90
2022-11-28T20:29:26.966Z,7.89
2022-11-28T20:31:57.270Z,7.85
2022-11-28T20:34:25.820Z,7.83
2022-11-28T20:36:54.385Z,7.82
2022-11-28T20:39:23.181Z,7.80
2022-11-28T20:41:51.422Z,7.80
2022-11-28T20:44:22.531Z,7.78
2022-11-28T20:46:50.774Z,7.76
2022-11-28T20:49:19.473Z,7.75
2022-11-28T20:51:47.930Z,7.75
2022-11-28T20:54:16.264Z,7.73
2022-11-28T20:57:19.816Z,7.71
2022-11-28T20:59:35.106Z,7.68
2022-11-28T21:02:03.403Z,7.66
2022-11-28T21:04:32.775Z,7.63
2022-11-28T21:07:00.931Z,7.62
2022-11-28T21:09:29.087Z,7.64
2022-11-28T21:11:58.904Z,7.62
2022-11-28T21:14:28.993Z,7.62
2022-11-28T21:16:59.800Z,7.63
2022-11-28T21:19:28.348Z,7.62
2022-11-28T21:21:56.507Z,7.64
2022-11-28T21:24:24.795Z,7.60
2022-11-28T21:26:54.391Z,7.60
2022-11-28T21:29:24.926Z,7.59
2022-11-28T21:31:53.454Z,7.58
2022-11-28T21:34:23.105Z,7.58
2022-11-28T21:36:51.277Z,7.56
2022-11-28T21:39:22.241Z,7.55
2022-11-28T21:41:51.305Z,7.55
2022-11-28T21:44:19.593Z,7.56
2022-11-28T21:46:47.870Z,7.54
2022-11-28T21:49:15.974Z,7.55
2022-11-28T21:51:45.532Z,7.56
2022-11-28T21:54:14.113Z,7.58
2022-11-28T21:56:42.343Z,7.58
2022-11-28T21:59:10.791Z,7.57
2022-11-28T22:01:39.089Z,7.56
2022-11-28T22:04:07.715Z,7.57
2022-11-28T22:06:35.940Z,7.56
2022-11-28T22:09:09.474Z,7.55
2022-11-28T22:11:38.649Z,7.56
2022-11-28T22:14:06.916Z,7.54
2022-11-28T22:16:35.071Z,7.54
2022-11-28T22:19:03.246Z,7.55
2022-11-28T22:24:21.139Z,7.52
2022-11-28T22:26:49.350Z,7.52
2022-11-28T22:29:17.505Z,7.50
2022-11-28T22:31:45.715Z,7.51
2022-11-28T22:34:13.915Z,7.50
2022-11-28T22:36:42.176Z,7.48
2022-11-28T22:39:12.319Z,7.49
2022-11-28T22:41:41.813Z,7.48
2022-11-28T22:44:11.665Z,7.47
2022-11-28T22:46:39.932Z,7.46
2022-11-28T22:49:08.127Z,7.46
2022-11-28T22:51:37.080Z,7.49
2022-11-28T22:54:05.997Z,7.50
2022-11-28T22:56:35.456Z,7.56
2022-11-28T22:59:05.979Z,7.63
2022-11-28T23:01:35.349Z,7.67
2022-11-28T23:04:03.921Z,7.74
2022-11-28T23:06:34.456Z,7.80
2022-11-28T23:09:05.229Z,7.85
2022-11-28T23:11:35.423Z,7.89
2022-11-28T23:14:05.896Z,7.91
2022-11-28T23:16:35.905Z,7.91
2022-11-28T23:19:06.606Z,7.93
2022-11-28T23:21:37.060Z,7.90
2022-11-28T23:24:06.096Z,7.90
2022-11-28T23:26:35.025Z,7.89
2022-11-28T23:29:06.249Z,7.92
2022-11-28T23:31:36.173Z,7.93
2022-11-28T23:34:04.327Z,7.89
2022-11-28T23:36:40.102Z,7.91
2022-11-28T23:39:12.922Z,7.93
2022-11-28T23:41:41.703Z,7.93
2022-11-28T23:44:13.069Z,7.97
2022-11-28T23:46:41.494Z,7.98
2022-11-28T23:49:10.311Z,7.97
2022-11-28T23:51:40.172Z,7.98
2022-11-28T23:54:09.242Z,7.96
2022-11-28T23:56:38.745Z,7.93
2022-11-28T23:59:08.937Z,7.89
